createdAt,value
2018-01-02T00:00:13.541Z,21.38
2018-01-02T00:01:13.539Z,21.38
2018-01-02T00:02:13.530Z,21.40
2018-01-02T00:03:13.522Z,21.44
2018-01-02T00:04:13.565Z,21.41
2018-01-02T00:05:13.510Z,21.41
2018-01-02T00:06:13.504Z,21.43
2018-01-02T00:07:13.497Z,21.48
2018-01-02T00:08:13.489Z,21.41
2018-01-02T00:09:13.483Z,21.40
2018-01-02T00:10:13.479Z,21.41
2018-01-02T00:11:13.473Z,21.41
2018-01-02T00:12:13.464Z,21.51
2018-01-02T00:13:13.459Z,21.44
2018-01-02T00:14:13.454Z,21.48
2018-01-02T00:15:13.445Z,21.38
2018-01-02T00:16:13.441Z,21.38
2018-01-02T00:17:13.432Z,21.48
2018-01-02T00:18:13.426Z,21.48
2018-01-02T00:19:13.420Z,21.37
2018-01-02T00:20:13.413Z,21.47
2018-01-02T00:21:13.408Z,21.38
2018-01-02T00:22:13.401Z,21.43
2018-01-02T00:23:13.395Z,21.45
2018-01-02T00:24:13.388Z,21.47
2018-01-02T00:25:13.382Z,21.41
2018-01-02T00:26:13.415Z,21.44
2018-01-02T00:27:13.370Z,21.40
2018-01-02T00:28:13.361Z,21.45
2018-01-02T00:29:13.361Z,21.41
2018-01-02T00:30:13.351Z,21.48
2018-01-02T00:31:13.343Z,21.43
2018-01-02T00:32:13.339Z,21.38
2018-01-02T00:33:13.331Z,21.41
2018-01-02T00:34:13.325Z,21.38
2018-01-02T00:35:13.317Z,21.38
2018-01-02T00:36:13.312Z,21.43
2018-01-02T00:37:13.304Z,21.45
2018-01-02T00:38:13.300Z,21.44
2018-01-02T00:39:13.293Z,21.43
2018-01-02T00:40:13.290Z,21.50
2018-01-02T00:41:13.280Z,21.37
2018-01-02T00:42:13.272Z,21.41
2018-01-02T00:43:13.268Z,21.43
2018-01-02T00:44:13.260Z,21.41
2018-01-02T00:45:13.252Z,21.38
2018-01-02T00:46:13.248Z,21.40
2018-01-02T00:47:13.242Z,21.44
2018-01-02T00:48:13.235Z,21.45
2018-01-02T00:49:13.229Z,21.38
2018-01-02T00:50:13.224Z,21.43
2018-01-02T00:51:13.217Z,21.40
2018-01-02T00:52:13.209Z,21.47
2018-01-02T00:53:13.204Z,21.40
2018-01-02T00:54:13.198Z,21.48
2018-01-02T00:55:13.193Z,21.47
2018-01-02T00:56:13.183Z,21.44
2018-01-02T00:57:13.179Z,21.50
2018-01-02T00:58:13.174Z,21.50
2018-01-02T00:59:13.165Z,21.41
2018-01-02T01:00:13.161Z,21.54
2018-01-02T01:01:13.154Z,21.47
2018-01-02T01:02:13.151Z,21.45
2018-01-02T01:03:13.140Z,21.40
2018-01-02T01:04:13.134Z,21.41
2018-01-02T01:05:13.129Z,21.44
2018-01-02T01:06:13.118Z,21.45
2018-01-02T01:07:13.116Z,21.44
2018-01-02T01:08:13.108Z,21.45
2018-01-02T01:09:13.104Z,21.37
2018-01-02T01:10:13.097Z,21.43
2018-01-02T01:11:13.092Z,21.43
2018-01-02T01:12:13.084Z,21.40
2018-01-02T01:13:13.080Z,21.35
2018-01-02T01:14:13.077Z,21.41
2018-01-02T01:15:13.066Z,21.38
2018-01-02T01:16:13.056Z,21.41
2018-01-02T01:17:13.053Z,21.38
2018-01-02T01:18:13.046Z,21.48
2018-01-02T01:19:13.036Z,21.44
2018-01-02T01:20:13.034Z,21.40
2018-01-02T01:21:13.029Z,21.44
2018-01-02T01:22:13.021Z,21.47
2018-01-02T01:23:13.016Z,21.44
2018-01-02T01:24:13.013Z,21.47
2018-01-02T01:25:13.003Z,21.33
2018-01-02T01:26:12.999Z,21.38
2018-01-02T01:27:12.992Z,21.29
2018-01-02T01:28:12.985Z,21.29
2018-01-02T01:29:12.978Z,21.37
2018-01-02T01:30:12.971Z,21.33
2018-01-02T01:31:12.965Z,21.26
2018-01-02T01:32:12.962Z,21.29
2018-01-02T01:33:12.951Z,21.33
2018-01-02T01:34:12.944Z,21.38
2018-01-02T01:35:12.940Z,21.35
2018-01-02T01:36:12.932Z,21.38
2018-01-02T01:37:12.928Z,21.30
2018-01-02T01:38:12.919Z,21.43
2018-01-02T01:39:12.914Z,21.37
2018-01-02T01:40:12.911Z,21.33
2018-01-02T01:41:12.902Z,21.37
2018-01-02T01:42:12.894Z,21.26
2018-01-02T01:43:12.890Z,21.35
2018-01-02T01:44:12.883Z,21.44
2018-01-02T01:45:12.876Z,21.33
2018-01-02T01:46:12.870Z,21.41
2018-01-02T01:47:12.863Z,21.32
2018-01-02T01:48:12.854Z,21.38
2018-01-02T01:49:12.850Z,21.41
2018-01-02T01:50:12.846Z,21.28
2018-01-02T01:51:12.839Z,21.30
2018-01-02T01:52:12.830Z,21.38
2018-01-02T01:53:12.826Z,21.35
2018-01-02T01:54:12.820Z,21.40
2018-01-02T01:55:12.813Z,21.37
2018-01-02T01:56:12.805Z,21.30
2018-01-02T01:57:12.800Z,21.33
2018-01-02T01:58:12.794Z,21.43
2018-01-02T01:59:12.787Z,21.44
2018-01-02T02:00:12.782Z,21.37
2018-01-02T02:01:12.777Z,21.43
2018-01-02T02:02:12.769Z,21.41
2018-01-02T02:03:12.763Z,21.37
2018-01-02T02:04:12.755Z,21.33
2018-01-02T02:05:12.749Z,21.33
2018-01-02T02:06:12.742Z,21.47
2018-01-02T02:07:12.739Z,21.38
2018-01-02T02:08:12.731Z,21.44
2018-01-02T02:09:12.725Z,21.40
2018-01-02T02:10:12.719Z,21.35
2018-01-02T02:11:12.713Z,21.47
2018-01-02T02:12:12.706Z,21.38
2018-01-02T02:13:12.700Z,21.41
2018-01-02T02:14:12.694Z,21.45
2018-01-02T02:15:12.692Z,21.44
2018-01-02T02:16:12.681Z,21.33
2018-01-02T02:17:12.674Z,21.38
2018-01-02T02:18:12.668Z,21.44
2018-01-02T02:19:12.663Z,21.44
2018-01-02T02:20:12.654Z,21.35
2018-01-02T02:21:12.649Z,21.33
2018-01-02T02:22:12.644Z,21.38
2018-01-02T02:23:12.638Z,21.38
2018-01-02T02:24:12.631Z,21.40
2018-01-02T02:25:12.621Z,21.40
2018-01-02T02:26:12.611Z,21.33
2018-01-02T02:27:12.605Z,21.47
2018-01-02T02:28:12.607Z,21.41
2018-01-02T02:29:12.598Z,21.40
2018-01-02T02:30:12.592Z,21.43
2018-01-02T02:31:12.585Z,21.44
2018-01-02T02:32:12.580Z,21.38
2018-01-02T02:33:12.578Z,21.44
2018-01-02T02:34:12.570Z,21.48
2018-01-02T02:35:12.561Z,21.32
2018-01-02T02:36:12.554Z,21.37
2018-01-02T02:37:12.550Z,21.29
2018-01-02T02:38:12.543Z,21.38
2018-01-02T02:39:12.538Z,21.40
2018-01-02T02:40:12.534Z,21.40
2018-01-02T02:41:12.524Z,21.47
2018-01-02T02:42:12.526Z,21.33
2018-01-02T02:43:12.511Z,21.37
2018-01-02T02:44:12.505Z,21.38
2018-01-02T02:45:12.499Z,21.41
2018-01-02T02:46:12.494Z,21.43
2018-01-02T02:47:12.489Z,21.43
2018-01-02T02:48:12.483Z,21.38
2018-01-02T02:49:12.482Z,21.40
2018-01-02T02:50:12.468Z,21.44
2018-01-02T02:51:12.462Z,21.40
2018-01-02T02:52:12.456Z,21.43
2018-01-02T02:53:12.449Z,21.38
2018-01-02T02:54:12.443Z,21.41
2018-01-02T02:55:12.438Z,21.40
2018-01-02T02:56:12.430Z,21.32
2018-01-02T02:57:12.426Z,21.43
2018-01-02T02:58:12.419Z,21.33
2018-01-02T02:59:12.408Z,21.41
2018-01-02T03:00:12.405Z,21.25
2018-01-02T03:01:12.398Z,21.38
2018-01-02T03:02:12.406Z,21.41
2018-01-02T03:03:12.386Z,21.28
2018-01-02T03:04:12.379Z,21.30
2018-01-02T03:05:12.375Z,21.37
2018-01-02T03:06:12.370Z,21.33
2018-01-02T03:07:12.361Z,21.26
2018-01-02T03:08:12.362Z,21.26
2018-01-02T03:09:12.348Z,21.23
2018-01-02T03:10:12.343Z,21.28
2018-01-02T03:11:12.338Z,21.32
2018-01-02T03:12:12.329Z,21.28
2018-01-02T03:13:12.324Z,21.26
2018-01-02T03:14:12.319Z,21.28
2018-01-02T03:15:12.311Z,21.28
2018-01-02T03:16:12.305Z,21.29
2018-01-02T03:17:12.298Z,21.29
2018-01-02T03:18:12.294Z,21.29
2018-01-02T03:19:12.292Z,21.26
2018-01-02T03:20:12.281Z,21.25
2018-01-02T03:21:12.274Z,21.32
2018-01-02T03:22:12.266Z,21.23
2018-01-02T03:23:12.265Z,21.28
2018-01-02T03:24:12.256Z,21.28
2018-01-02T03:25:12.250Z,21.25
2018-01-02T03:26:12.243Z,21.35
2018-01-02T03:27:12.230Z,21.32
2018-01-02T03:28:12.232Z,21.26
2018-01-02T03:29:12.226Z,21.29
2018-01-02T03:30:12.220Z,21.30
2018-01-02T03:31:12.214Z,21.28
2018-01-02T03:32:12.206Z,21.26
2018-01-02T03:33:12.200Z,21.28
2018-01-02T03:34:12.193Z,21.28
2018-01-02T03:35:12.189Z,21.28
2018-01-02T03:36:12.180Z,21.32
2018-01-02T03:37:12.183Z,21.28
2018-01-02T03:38:12.166Z,21.26
2018-01-02T03:39:12.163Z,21.30
2018-01-02T03:40:12.156Z,21.28
2018-01-02T03:41:12.149Z,21.23
2018-01-02T03:42:12.136Z,21.26
2018-01-02T03:43:12.148Z,21.29
2018-01-02T03:44:12.130Z,21.25
2018-01-02T03:45:12.123Z,21.33
2018-01-02T03:46:12.121Z,21.25
2018-01-02T03:47:12.109Z,21.25
2018-01-02T03:48:12.116Z,21.25
2018-01-02T03:49:12.097Z,21.23
2018-01-02T03:50:12.092Z,21.30
2018-01-02T03:51:12.084Z,21.28
2018-01-02T03:52:12.078Z,21.23
2018-01-02T03:53:12.073Z,21.23
2018-01-02T03:54:12.069Z,21.25
2018-01-02T03:55:12.061Z,21.25
2018-01-02T03:56:12.054Z,21.30
2018-01-02T03:57:12.049Z,21.28
2018-01-02T03:58:12.042Z,21.30
2018-01-02T03:59:12.036Z,21.25
2018-01-02T04:00:12.030Z,21.23
2018-01-02T04:01:12.022Z,21.26
2018-01-02T04:02:12.019Z,21.33
2018-01-02T04:03:12.017Z,21.45
2018-01-02T04:04:12.006Z,21.35
2018-01-02T04:05:11.999Z,21.40
2018-01-02T04:06:11.991Z,21.47
2018-01-02T04:07:11.989Z,21.51
2018-01-02T04:08:11.979Z,21.58
2018-01-02T04:09:11.972Z,21.54
2018-01-02T04:10:11.968Z,21.53
2018-01-02T04:11:11.962Z,21.60
2018-01-02T04:12:11.954Z,21.63
2018-01-02T04:13:11.946Z,21.69
2018-01-02T04:14:11.943Z,21.68
2018-01-02T04:15:11.935Z,21.74
2018-01-02T04:16:11.933Z,21.72
2018-01-02T04:17:11.923Z,21.74
2018-01-02T04:18:11.918Z,21.77
2018-01-02T04:19:11.912Z,21.78
2018-01-02T04:20:11.905Z,21.78
2018-01-02T04:21:11.899Z,21.72
2018-01-02T04:22:11.893Z,21.83
2018-01-02T04:23:11.886Z,21.83
2018-01-02T04:24:11.879Z,21.91
2018-01-02T04:25:11.874Z,21.84
2018-01-02T04:26:11.869Z,21.94
2018-01-02T04:27:11.861Z,21.89
2018-01-02T04:28:11.853Z,21.97
2018-01-02T04:29:11.848Z,21.96
2018-01-02T04:30:11.846Z,21.96
2018-01-02T04:31:11.837Z,21.92
2018-01-02T04:32:11.826Z,21.92
2018-01-02T04:33:11.825Z,21.94
2018-01-02T04:34:11.820Z,21.89
2018-01-02T04:35:11.812Z,21.94
2018-01-02T04:36:11.807Z,21.94
2018-01-02T04:37:11.800Z,21.94
2018-01-02T04:38:11.800Z,21.94
2018-01-02T04:39:11.787Z,21.94
2018-01-02T04:40:11.781Z,21.97
2018-01-02T04:41:11.778Z,21.96
2018-01-02T04:42:11.774Z,21.99
2018-01-02T04:43:11.763Z,21.99
2018-01-02T04:44:11.762Z,21.96
2018-01-02T04:45:11.750Z,22.00
2018-01-02T04:46:11.745Z,22.03
2018-01-02T04:47:11.741Z,21.99
2018-01-02T04:48:11.735Z,22.03
2018-01-02T04:49:11.728Z,22.01
2018-01-02T04:50:11.720Z,22.04
2018-01-02T04:51:11.714Z,22.03
2018-01-02T04:52:11.709Z,22.01
2018-01-02T04:53:11.702Z,21.97
2018-01-02T04:54:11.696Z,22.03
2018-01-02T04:55:11.690Z,21.89
2018-01-02T04:56:11.686Z,21.62
2018-01-02T04:57:11.677Z,21.45
2018-01-02T04:58:11.673Z,21.20
2018-01-02T04:59:11.687Z,21.15
2018-01-02T05:00:11.656Z,21.05
2018-01-02T05:01:11.650Z,21.10
2018-01-02T05:02:11.643Z,21.14
2018-01-02T05:03:11.637Z,21.13
2018-01-02T05:04:11.638Z,21.14
2018-01-02T05:05:11.622Z,21.20
2018-01-02T05:06:11.614Z,21.19
2018-01-02T05:07:11.607Z,21.28
2018-01-02T05:08:11.600Z,21.35
2018-01-02T05:09:11.593Z,21.28
2018-01-02T05:10:11.588Z,21.41
2018-01-02T05:11:11.579Z,21.41
2018-01-02T05:12:11.571Z,21.41
2018-01-02T05:13:11.564Z,21.50
2018-01-02T05:14:11.557Z,21.48
2018-01-02T05:15:11.553Z,21.56
2018-01-02T05:16:11.541Z,21.58
2018-01-02T05:17:11.534Z,21.60
2018-01-02T05:18:11.526Z,21.70
2018-01-02T05:19:11.523Z,21.66
2018-01-02T05:20:11.513Z,21.70
2018-01-02T05:21:11.504Z,21.74
2018-01-02T05:22:11.497Z,21.72
2018-01-02T05:23:11.489Z,21.78
2018-01-02T05:24:11.480Z,21.80
2018-01-02T05:25:11.475Z,21.80
2018-01-02T05:26:11.468Z,21.85
2018-01-02T05:27:11.459Z,21.78
2018-01-02T05:28:11.451Z,21.85
2018-01-02T05:29:11.444Z,21.85
2018-01-02T05:30:11.438Z,21.88
2018-01-02T05:31:11.429Z,21.88
2018-01-02T05:32:11.421Z,21.88
2018-01-02T05:33:11.417Z,21.89
2018-01-02T05:34:11.413Z,21.92
2018-01-02T05:35:11.400Z,21.84
2018-01-02T05:36:11.390Z,21.94
2018-01-02T05:37:11.384Z,21.96
2018-01-02T05:38:11.377Z,21.99
2018-01-02T05:39:11.368Z,21.96
2018-01-02T05:40:11.361Z,22.04
2018-01-02T05:41:11.354Z,22.04
2018-01-02T05:42:11.346Z,22.06
2018-01-02T05:43:11.338Z,22.07
2018-01-02T05:44:11.330Z,22.08
2018-01-02T05:45:11.323Z,22.12
2018-01-02T05:46:11.316Z,22.07
2018-01-02T05:47:11.312Z,22.10
2018-01-02T05:48:11.300Z,22.08
2018-01-02T05:49:11.293Z,22.03
2018-01-02T05:50:11.286Z,22.08
2018-01-02T05:51:11.279Z,22.10
2018-01-02T05:52:11.270Z,22.08
2018-01-02T05:53:11.262Z,22.08
2018-01-02T05:54:11.257Z,22.06
2018-01-02T05:55:11.249Z,22.06
2018-01-02T05:56:11.241Z,22.07
2018-01-02T05:57:11.233Z,22.06
2018-01-02T05:58:11.227Z,22.04
2018-01-02T05:59:11.217Z,22.01
2018-01-02T06:00:11.211Z,22.00
2018-01-02T06:01:11.204Z,22.01
2018-01-02T06:02:11.196Z,21.99
2018-01-02T06:03:11.188Z,21.94
2018-01-02T06:04:11.180Z,21.91
2018-01-02T06:05:11.171Z,21.96
2018-01-02T06:06:11.165Z,21.92
2018-01-02T06:07:11.157Z,21.91
2018-01-02T06:08:11.150Z,21.85
2018-01-02T06:09:11.143Z,21.89
2018-01-02T06:10:11.136Z,21.88
2018-01-02T06:11:11.126Z,21.91
2018-01-02T06:12:11.118Z,21.83
2018-01-02T06:13:11.111Z,21.75
2018-01-02T06:14:11.104Z,21.83
2018-01-02T06:15:11.099Z,21.80
2018-01-02T06:16:11.091Z,21.83
2018-01-02T06:17:11.082Z,21.78
2018-01-02T06:18:11.074Z,21.83
2018-01-02T06:19:11.067Z,21.80
2018-01-02T06:20:11.058Z,21.75
2018-01-02T06:21:11.050Z,21.77
2018-01-02T06:22:11.044Z,21.83
2018-01-02T06:23:11.037Z,21.81
2018-01-02T06:24:11.028Z,21.80
2018-01-02T06:25:11.026Z,21.75
2018-01-02T06:26:11.013Z,21.81
2018-01-02T06:27:11.006Z,21.77
2018-01-02T06:28:10.997Z,21.81
2018-01-02T06:29:10.990Z,21.77
2018-01-02T06:30:10.985Z,21.77
2018-01-02T06:31:10.975Z,21.80
2018-01-02T06:32:10.968Z,21.80
2018-01-02T06:33:10.959Z,21.81
2018-01-02T06:34:10.952Z,21.77
2018-01-02T06:35:10.944Z,21.81
2018-01-02T06:36:10.942Z,21.72
2018-01-02T06:37:10.970Z,21.74
2018-01-02T06:38:10.922Z,21.78
2018-01-02T06:39:10.914Z,21.81
2018-01-02T06:40:10.906Z,21.81
2018-01-02T06:41:10.898Z,21.80
2018-01-02T06:42:10.892Z,21.77
2018-01-02T06:43:10.884Z,21.74
2018-01-02T06:44:10.876Z,21.75
2018-01-02T06:45:10.867Z,21.77
2018-01-02T06:46:10.860Z,21.78
2018-01-02T06:47:10.852Z,21.74
2018-01-02T06:48:10.845Z,21.74
2018-01-02T06:49:10.837Z,21.77
2018-01-02T06:50:10.829Z,21.75
2018-01-02T06:51:10.822Z,21.75
2018-01-02T06:52:10.813Z,21.72
2018-01-02T06:53:10.806Z,21.77
2018-01-02T06:54:10.798Z,21.75
2018-01-02T06:55:10.791Z,21.78
2018-01-02T06:56:10.786Z,21.74
2018-01-02T06:57:10.776Z,21.80
2018-01-02T06:58:10.767Z,21.80
2018-01-02T06:59:10.761Z,21.78
2018-01-02T07:00:10.753Z,21.80
2018-01-02T07:01:10.744Z,21.78
2018-01-02T07:02:10.737Z,21.77
2018-01-02T07:03:10.730Z,21.78
2018-01-02T07:04:10.721Z,21.77
2018-01-02T07:05:10.714Z,21.81
2018-01-02T07:06:10.708Z,21.78
2018-01-02T07:07:10.701Z,21.78
2018-01-02T07:08:10.692Z,21.84
2018-01-02T07:09:10.685Z,21.81
2018-01-02T07:10:10.680Z,21.78
2018-01-02T07:11:10.669Z,21.80
2018-01-02T07:12:10.662Z,21.74
2018-01-02T07:13:10.653Z,21.77
2018-01-02T07:14:10.646Z,21.80
2018-01-02T07:15:10.638Z,21.81
2018-01-02T07:16:10.630Z,21.75
2018-01-02T07:17:10.624Z,21.74
2018-01-02T07:18:10.616Z,21.72
2018-01-02T07:19:10.608Z,21.80
2018-01-02T07:20:10.601Z,21.72
2018-01-02T07:21:10.594Z,21.80
2018-01-02T07:22:10.585Z,21.78
2018-01-02T07:23:10.578Z,21.77
2018-01-02T07:24:10.568Z,21.78
2018-01-02T07:25:10.562Z,21.83
2018-01-02T07:26:10.554Z,21.81
2018-01-02T07:27:10.546Z,21.83
2018-01-02T07:28:10.538Z,21.78
2018-01-02T07:29:10.531Z,21.78
2018-01-02T07:30:10.523Z,21.78
2018-01-02T07:31:10.514Z,21.88
2018-01-02T07:32:10.512Z,21.83
2018-01-02T07:33:10.500Z,21.83
2018-01-02T07:34:10.492Z,21.88
2018-01-02T07:35:10.484Z,21.84
2018-01-02T07:36:10.477Z,21.85
2018-01-02T07:37:10.490Z,21.83
2018-01-02T07:38:10.462Z,21.85
2018-01-02T07:39:10.504Z,21.83
2018-01-02T07:40:10.445Z,21.84
2018-01-02T07:41:10.438Z,21.84
2018-01-02T07:42:10.432Z,21.85
2018-01-02T07:43:10.423Z,21.85
2018-01-02T07:44:10.415Z,21.89
2018-01-02T07:45:10.408Z,21.84
2018-01-02T07:46:10.425Z,21.88
2018-01-02T07:47:10.409Z,21.85
2018-01-02T07:48:10.384Z,21.84
2018-01-02T07:49:10.377Z,21.81
2018-01-02T07:50:10.374Z,21.83
2018-01-02T07:51:10.363Z,21.84
2018-01-02T07:52:10.353Z,21.81
2018-01-02T07:53:10.382Z,21.80
2018-01-02T07:54:10.337Z,21.78
2018-01-02T07:55:10.332Z,21.75
2018-01-02T07:56:10.322Z,21.80
2018-01-02T07:57:10.315Z,21.78
2018-01-02T07:58:10.308Z,21.80
2018-01-02T07:59:10.300Z,21.75
2018-01-02T08:00:10.293Z,21.78
2018-01-02T08:01:10.284Z,21.81
2018-01-02T08:02:10.277Z,21.83
2018-01-02T08:03:10.270Z,21.80
2018-01-02T08:04:10.263Z,21.78
2018-01-02T08:05:10.254Z,21.80
2018-01-02T08:06:10.247Z,21.83
2018-01-02T08:07:10.238Z,21.78
2018-01-02T08:08:10.230Z,21.78
2018-01-02T08:09:10.224Z,21.77
2018-01-02T08:10:10.217Z,21.77
2018-01-02T08:11:10.208Z,21.80
2018-01-02T08:12:10.202Z,21.74
2018-01-02T08:13:10.193Z,21.77
2018-01-02T08:14:10.184Z,21.74
2018-01-02T08:15:10.177Z,21.78
2018-01-02T08:16:10.170Z,21.75
2018-01-02T08:17:10.162Z,21.75
2018-01-02T08:18:10.154Z,21.78
2018-01-02T08:19:10.146Z,21.83
2018-01-02T08:20:10.138Z,21.77
2018-01-02T08:21:10.133Z,21.72
2018-01-02T08:22:10.123Z,21.75
2018-01-02T08:23:10.116Z,21.75
2018-01-02T08:24:10.112Z,21.72
2018-01-02T08:25:10.107Z,21.75
2018-01-02T08:26:10.094Z,21.75
2018-01-02T08:27:10.087Z,21.78
2018-01-02T08:28:10.078Z,21.74
2018-01-02T08:29:10.070Z,21.74
2018-01-02T08:30:10.063Z,21.78
2018-01-02T08:31:10.054Z,21.80
2018-01-02T08:32:10.047Z,21.77
2018-01-02T08:33:10.039Z,21.70
2018-01-02T08:34:10.033Z,21.78
2018-01-02T08:35:10.024Z,21.77
2018-01-02T08:36:10.015Z,21.75
2018-01-02T08:37:10.008Z,21.72
2018-01-02T08:38:10.001Z,21.80
2018-01-02T08:39:09.994Z,21.75
2018-01-02T08:40:09.985Z,21.77
2018-01-02T08:41:09.977Z,21.81
2018-01-02T08:42:09.970Z,21.80
2018-01-02T08:43:09.964Z,21.80
2018-01-02T08:44:09.954Z,21.72
2018-01-02T08:45:09.946Z,21.75
2018-01-02T08:46:09.939Z,21.81
2018-01-02T08:47:09.931Z,21.81
2018-01-02T08:48:09.925Z,21.78
2018-01-02T08:49:09.917Z,21.81
2018-01-02T08:50:09.911Z,21.81
2018-01-02T08:51:09.902Z,21.81
2018-01-02T08:52:09.893Z,21.80
2018-01-02T08:53:09.885Z,21.83
2018-01-02T08:54:09.878Z,21.83
2018-01-02T08:55:09.870Z,21.85
2018-01-02T08:56:09.862Z,21.91
2018-01-02T08:57:09.853Z,21.80
2018-01-02T08:58:09.847Z,21.85
2018-01-02T08:59:09.839Z,21.91
2018-01-02T09:00:09.834Z,21.91
2018-01-02T09:01:09.823Z,21.85
2018-01-02T09:02:09.816Z,21.92
2018-01-02T09:03:09.808Z,21.88
2018-01-02T09:04:09.800Z,21.85
2018-01-02T09:05:09.793Z,21.85
2018-01-02T09:06:09.785Z,21.92
2018-01-02T09:07:09.778Z,21.85
2018-01-02T09:08:09.769Z,21.91
2018-01-02T09:09:09.762Z,21.85
2018-01-02T09:10:09.755Z,21.91
2018-01-02T09:11:09.747Z,21.80
2018-01-02T09:12:09.740Z,21.81
2018-01-02T09:13:09.731Z,21.83
2018-01-02T09:14:09.723Z,21.83
2018-01-02T09:15:09.716Z,21.83
2018-01-02T09:16:09.707Z,21.83
2018-01-02T09:17:09.702Z,21.78
2018-01-02T09:18:09.695Z,21.83
2018-01-02T09:19:09.685Z,21.80
2018-01-02T09:20:09.678Z,21.77
2018-01-02T09:21:09.669Z,21.81
2018-01-02T09:22:09.663Z,21.81
2018-01-02T09:23:09.656Z,21.78
2018-01-02T09:24:09.647Z,21.74
2018-01-02T09:25:09.638Z,21.81
2018-01-02T09:26:09.636Z,21.75
2018-01-02T09:27:09.624Z,21.75
2018-01-02T09:28:09.616Z,21.80
2018-01-02T09:29:09.609Z,21.80
2018-01-02T09:30:09.602Z,21.83
2018-01-02T09:31:09.593Z,21.81
2018-01-02T09:32:09.586Z,21.74
2018-01-02T09:33:09.579Z,21.78
2018-01-02T09:34:09.570Z,21.77
2018-01-02T09:35:09.564Z,21.78
2018-01-02T09:36:09.555Z,21.75
2018-01-02T09:37:09.546Z,21.77
2018-01-02T09:38:09.545Z,21.83
2018-01-02T09:39:09.532Z,21.77
2018-01-02T09:40:09.524Z,21.80
2018-01-02T09:41:09.519Z,21.77
2018-01-02T09:42:09.521Z,21.80
2018-01-02T09:43:09.501Z,21.78
2018-01-02T09:44:09.493Z,21.83
2018-01-02T09:45:09.488Z,21.80
2018-01-02T09:46:09.477Z,21.78
2018-01-02T09:47:09.470Z,21.75
2018-01-02T09:48:09.464Z,21.77
2018-01-02T09:49:09.458Z,21.75
2018-01-02T09:50:09.448Z,21.74
2018-01-02T09:51:09.444Z,21.80
2018-01-02T09:52:09.433Z,21.75
2018-01-02T09:53:09.423Z,21.80
2018-01-02T09:54:09.416Z,21.77
2018-01-02T09:55:09.409Z,21.80
2018-01-02T09:56:09.424Z,21.81
2018-01-02T09:57:09.393Z,21.74
2018-01-02T09:58:09.387Z,21.83
2018-01-02T09:59:09.378Z,21.81
2018-01-02T10:00:09.370Z,21.78
2018-01-02T10:01:09.363Z,21.78
2018-01-02T10:02:09.354Z,21.78
2018-01-02T10:03:09.348Z,21.78
2018-01-02T10:04:09.338Z,21.78
2018-01-02T10:05:09.331Z,21.77
2018-01-02T10:06:09.324Z,21.81
2018-01-02T10:07:09.318Z,21.77
2018-01-02T10:08:09.309Z,21.72
2018-01-02T10:09:09.301Z,21.75
2018-01-02T10:10:09.294Z,21.81
2018-01-02T10:11:09.287Z,21.72
2018-01-02T10:12:09.277Z,21.77
2018-01-02T10:13:09.272Z,21.74
2018-01-02T10:14:09.263Z,21.75
2018-01-02T10:15:09.256Z,21.77
2018-01-02T10:16:09.248Z,21.72
2018-01-02T10:17:09.239Z,21.74
2018-01-02T10:18:09.231Z,21.74
2018-01-02T10:19:09.224Z,21.77
2018-01-02T10:20:09.216Z,21.77
2018-01-02T10:21:09.208Z,21.78
2018-01-02T10:22:09.201Z,21.77
2018-01-02T10:23:09.194Z,21.80
2018-01-02T10:24:09.185Z,21.77
2018-01-02T10:25:09.177Z,21.78
2018-01-02T10:26:09.170Z,21.74
2018-01-02T10:27:09.163Z,21.80
2018-01-02T10:28:09.154Z,21.81
2018-01-02T10:29:09.145Z,21.84
2018-01-02T10:30:09.138Z,21.85
2018-01-02T10:31:09.132Z,21.84
2018-01-02T10:32:09.124Z,21.85
2018-01-02T10:33:09.116Z,21.89
2018-01-02T10:34:09.109Z,21.85
2018-01-02T10:35:09.101Z,21.91
2018-01-02T10:36:09.096Z,21.83
2018-01-02T10:37:09.086Z,21.88
2018-01-02T10:38:09.079Z,21.97
2018-01-02T10:39:09.075Z,21.88
2018-01-02T10:40:09.063Z,21.92
2018-01-02T10:41:09.056Z,21.92
2018-01-02T10:42:09.047Z,21.84
2018-01-02T10:43:09.041Z,21.89
2018-01-02T10:44:09.031Z,21.92
2018-01-02T10:45:09.024Z,21.99
2018-01-02T10:46:09.016Z,21.92
2018-01-02T10:47:09.011Z,21.91
2018-01-02T10:48:09.001Z,21.85
2018-01-02T10:49:08.994Z,21.85
2018-01-02T10:50:08.986Z,21.85
2018-01-02T10:51:08.978Z,21.84
2018-01-02T10:52:09.005Z,21.91
2018-01-02T10:53:08.963Z,21.92
2018-01-02T10:54:08.955Z,21.88
2018-01-02T10:55:08.945Z,21.92
2018-01-02T10:56:08.979Z,21.91
2018-01-02T10:57:08.933Z,21.84
2018-01-02T10:58:08.926Z,21.89
2018-01-02T10:59:08.920Z,21.89
2018-01-02T11:00:08.910Z,21.83
2018-01-02T11:01:08.903Z,21.92
2018-01-02T11:02:08.898Z,21.89
2018-01-02T11:03:08.889Z,21.88
2018-01-02T11:04:08.880Z,21.85
2018-01-02T11:05:08.871Z,21.89
2018-01-02T11:06:08.864Z,21.89
2018-01-02T11:07:08.858Z,21.78
2018-01-02T11:08:08.848Z,21.78
2018-01-02T11:09:08.840Z,21.83
2018-01-02T11:10:08.833Z,21.81
2018-01-02T11:11:08.826Z,21.83
2018-01-02T11:12:08.821Z,21.84
2018-01-02T11:13:08.809Z,21.81
2018-01-02T11:14:08.804Z,21.85
2018-01-02T11:15:08.795Z,21.85
2018-01-02T11:16:08.787Z,21.77
2018-01-02T11:17:08.780Z,21.74
2018-01-02T11:18:08.775Z,21.80
2018-01-02T11:19:08.765Z,21.74
2018-01-02T11:20:08.757Z,21.75
2018-01-02T11:21:08.749Z,21.78
2018-01-02T11:22:08.742Z,21.81
2018-01-02T11:23:08.734Z,21.77
2018-01-02T11:24:08.728Z,21.89
2018-01-02T11:25:08.719Z,21.81
2018-01-02T11:26:08.710Z,21.92
2018-01-02T11:27:08.706Z,21.97
2018-01-02T11:28:08.696Z,22.03
2018-01-02T11:29:08.687Z,21.96
2018-01-02T11:30:08.681Z,22.03
2018-01-02T11:31:08.674Z,22.01
2018-01-02T11:32:08.668Z,22.12
2018-01-02T11:33:08.660Z,22.14
2018-01-02T11:34:08.650Z,22.18
2018-01-02T11:35:08.645Z,22.21
2018-01-02T11:36:08.637Z,22.21
2018-01-02T11:37:08.628Z,22.19
2018-01-02T11:38:08.620Z,22.19
2018-01-02T11:39:08.613Z,22.16
2018-01-02T11:40:08.605Z,22.16
2018-01-02T11:41:08.597Z,22.15
2018-01-02T11:42:08.591Z,22.22
2018-01-02T11:43:08.583Z,22.15
2018-01-02T11:44:08.575Z,22.22
2018-01-02T11:45:08.567Z,22.18
2018-01-02T11:46:08.563Z,22.16
2018-01-02T11:47:08.554Z,22.03
2018-01-02T11:48:08.545Z,22.04
2018-01-02T11:49:08.538Z,22.12
2018-01-02T11:50:08.536Z,22.14
2018-01-02T11:51:08.524Z,22.10
2018-01-02T11:52:08.515Z,22.08
2018-01-02T11:53:08.509Z,22.06
2018-01-02T11:54:08.499Z,22.08
2018-01-02T11:55:08.492Z,22.00
2018-01-02T11:56:08.484Z,22.00
2018-01-02T11:57:08.479Z,22.00
2018-01-02T11:58:08.470Z,22.00
2018-01-02T11:59:08.462Z,22.01
2018-01-02T12:00:08.454Z,21.92
2018-01-02T12:01:08.450Z,22.00
2018-01-02T12:02:08.440Z,21.99
2018-01-02T12:03:08.432Z,21.97
2018-01-02T12:04:08.424Z,21.92
2018-01-02T12:05:08.417Z,21.88
2018-01-02T12:06:08.410Z,22.00
2018-01-02T12:07:08.403Z,21.96
2018-01-02T12:08:08.396Z,21.97
2018-01-02T12:09:08.386Z,21.91
2018-01-02T12:10:08.379Z,21.88
2018-01-02T12:11:08.373Z,21.88
2018-01-02T12:12:08.363Z,21.91
2018-01-02T12:13:08.359Z,21.88
2018-01-02T12:14:08.349Z,21.84
2018-01-02T12:15:08.342Z,21.85
2018-01-02T12:16:08.334Z,21.88
2018-01-02T12:17:08.325Z,21.84
2018-01-02T12:18:08.319Z,21.84
2018-01-02T12:19:08.311Z,21.84
2018-01-02T12:20:08.302Z,21.83
2018-01-02T12:21:08.295Z,21.78
2018-01-02T12:22:08.287Z,21.83
2018-01-02T12:23:08.279Z,21.84
2018-01-02T12:24:08.272Z,21.83
2018-01-02T12:25:08.265Z,21.88
2018-01-02T12:26:08.257Z,21.81
2018-01-02T12:27:08.249Z,21.84
2018-01-02T12:28:08.241Z,21.83
2018-01-02T12:29:08.235Z,21.75
2018-01-02T12:30:08.228Z,21.80
2018-01-02T12:31:08.220Z,21.85
2018-01-02T12:32:08.210Z,21.81
2018-01-02T12:33:08.204Z,21.81
2018-01-02T12:34:08.196Z,21.78
2018-01-02T12:35:08.188Z,21.80
2018-01-02T12:36:08.179Z,21.85
2018-01-02T12:37:08.172Z,21.75
2018-01-02T12:38:08.164Z,21.84
2018-01-02T12:39:08.158Z,21.75
2018-01-02T12:40:08.148Z,21.85
2018-01-02T12:41:08.144Z,21.78
2018-01-02T12:42:08.159Z,21.80
2018-01-02T12:43:08.127Z,21.74
2018-01-02T12:44:08.120Z,21.80
2018-01-02T12:45:08.111Z,21.80
2018-01-02T12:46:08.105Z,21.83
2018-01-02T12:47:08.097Z,21.81
2018-01-02T12:48:08.087Z,21.74
2018-01-02T12:49:08.081Z,21.78
2018-01-02T12:50:08.074Z,21.78
2018-01-02T12:51:08.071Z,21.78
2018-01-02T12:52:08.058Z,21.80